createdAt,value
2022-11-24T00:02:17.266Z,87.77
2022-11-24T00:07:16.754Z,87.70
2022-11-24T00:12:16.743Z,87.56
2022-11-24T00:17:16.732Z,87.44
2022-11-24T00:22:16.708Z,87.49
2022-11-24T00:27:16.789Z,87.55
2022-11-24T00:32:16.764Z,87.59
2022-11-24T00:37:16.766Z,87.63
2022-11-24T00:42:16.795Z,87.66
2022-11-24T00:47:16.891Z,87.71
2022-11-24T00:52:16.777Z,87.62
2022-11-24T00:57:16.844Z,87.38
2022-11-24T01:02:17.398Z,87.37
2022-11-24T01:07:16.951Z,87.60
2022-11-24T01:12:16.864Z,87.42
2022-11-24T01:17:17.507Z,87.25
2022-11-24T01:22:16.871Z,86.91
2022-11-24T01:27:16.926Z,86.66
2022-11-24T01:32:16.927Z,86.11
2022-11-24T01:37:16.900Z,85.89
2022-11-24T01:42:16.951Z,85.71
2022-11-24T01:47:26.121Z,84.90
2022-11-24T01:52:21.957Z,84.54
2022-11-24T01:57:24.912Z,84.30
2022-11-24T02:02:18.817Z,84.46
2022-11-24T02:07:17.628Z,84.52
2022-11-24T02:12:17.012Z,85.43
2022-11-24T02:17:17.041Z,85.60
2022-11-24T02:22:35.788Z,85.38
2022-11-24T02:27:18.259Z,84.97
2022-11-24T02:32:17.578Z,85.38
2022-11-24T02:37:17.063Z,85.28
2022-11-24T02:42:17.194Z,85.33
2022-11-24T02:47:17.089Z,85.22
2022-11-24T02:52:18.425Z,85.19
2022-11-24T02:57:17.130Z,85.25
2022-11-24T03:02:17.914Z,84.82
2022-11-24T03:07:17.152Z,84.39
2022-11-24T03:12:17.204Z,84.30
2022-11-24T03:17:17.174Z,83.81
2022-11-24T03:22:17.155Z,83.99
2022-11-24T03:27:17.172Z,84.06
2022-11-24T03:32:17.183Z,84.31
2022-11-24T03:37:17.212Z,84.42
2022-11-24T03:42:17.176Z,84.54
2022-11-24T03:47:17.207Z,84.55
2022-11-24T03:52:17.243Z,84.96
2022-11-24T03:57:17.227Z,84.97
2022-11-24T04:02:18.972Z,85.10
2022-11-24T04:07:17.633Z,85.33
2022-11-24T04:12:17.297Z,85.25
2022-11-24T04:17:17.245Z,85.35
2022-11-24T04:22:17.263Z,85.17
2022-11-24T04:27:17.328Z,84.97
2022-11-24T04:32:17.464Z,84.86
2022-11-24T04:37:17.355Z,84.78
2022-11-24T04:42:17.305Z,84.05
2022-11-24T04:47:20.357Z,83.97
2022-11-24T04:52:18.303Z,84.49
2022-11-24T04:57:21.984Z,85.08
2022-11-24T05:02:18.648Z,85.79
2022-11-24T05:07:19.348Z,86.08
2022-11-24T05:12:17.336Z,86.67
2022-11-24T05:17:17.378Z,86.86
2022-11-24T05:22:17.352Z,87.42
2022-11-24T05:27:17.370Z,87.88
2022-11-24T05:32:17.411Z,87.70
2022-11-24T05:37:17.449Z,87.53
2022-11-24T05:42:17.418Z,87.33
2022-11-24T05:47:18.225Z,87.16
2022-11-24T05:52:17.453Z,87.66
2022-11-24T05:57:17.465Z,87.61
2022-11-24T06:02:18.067Z,87.71
2022-11-24T06:07:17.866Z,88.20
2022-11-24T06:12:17.523Z,88.86
2022-11-24T06:17:17.494Z,89.25
2022-11-24T06:22:17.619Z,89.26
2022-11-24T06:27:17.617Z,90.13
2022-11-24T06:32:17.952Z,90.02
2022-11-24T06:37:17.684Z,89.92
2022-11-24T06:42:17.598Z,89.27
2022-11-24T06:47:17.561Z,89.30
2022-11-24T06:52:17.625Z,88.98
2022-11-24T06:57:17.567Z,88.90
2022-11-24T07:02:18.061Z,88.72
2022-11-24T07:07:17.690Z,88.38
2022-11-24T07:12:17.644Z,88.12
2022-11-24T07:17:17.679Z,88.09
2022-11-24T07:22:17.603Z,88.12
2022-11-24T07:27:17.622Z,88.25
2022-11-24T07:32:17.802Z,88.23
2022-11-24T07:37:17.652Z,87.92
2022-11-24T07:42:17.684Z,87.98
2022-11-24T07:47:17.741Z,88.03
2022-11-24T07:52:17.699Z,88.07
2022-11-24T07:57:17.730Z,88.18
2022-11-24T08:02:18.229Z,88.16
2022-11-24T08:07:17.768Z,88.24
2022-11-24T08:12:18.504Z,88.16
2022-11-24T08:17:17.807Z,88.57
2022-11-24T08:22:17.775Z,88.32
2022-11-24T08:27:18.299Z,88.79
2022-11-24T08:32:21.902Z,88.82
2022-11-24T08:37:17.815Z,89.33
2022-11-24T08:42:17.799Z,89.10
2022-11-24T08:47:17.848Z,88.82
2022-11-24T08:52:17.861Z,88.04
2022-11-24T08:57:21.745Z,88.21
2022-11-24T09:02:18.555Z,88.39
2022-11-24T09:07:17.956Z,87.66
2022-11-24T09:12:17.875Z,87.35
2022-11-24T09:17:17.896Z,86.43
2022-11-24T09:22:17.928Z,86.07
2022-11-24T09:27:17.900Z,85.23
2022-11-24T09:32:17.954Z,82.35
2022-11-24T09:37:17.927Z,78.30
2022-11-24T09:42:30.832Z,77.70
2022-11-24T09:47:37.909Z,73.31
2022-11-24T09:52:23.797Z,72.99
2022-11-24T09:57:20.657Z,70.89
2022-11-24T10:02:18.581Z,70.88
2022-11-24T10:07:21.641Z,68.83
2022-11-24T10:12:28.956Z,69.89
2022-11-24T10:17:28.008Z,67.80
2022-11-24T10:22:37.947Z,67.21
2022-11-24T10:27:24.314Z,68.35
2022-11-24T10:32:23.055Z,67.76
2022-11-24T10:37:24.858Z,67.93
2022-11-24T10:42:28.621Z,67.31
2022-11-24T10:47:20.254Z,66.43
2022-11-24T10:52:18.863Z,66.72
2022-11-24T10:57:30.476Z,67.37
2022-11-24T11:02:30.316Z,67.45
2022-11-24T11:07:20.949Z,69.02
2022-11-24T11:17:36.358Z,66.64
2022-11-24T11:22:25.966Z,68.40
2022-11-24T11:27:20.685Z,68.38
2022-11-24T11:37:20.580Z,67.21
2022-11-24T11:43:00.669Z,67.88
2022-11-24T11:47:27.028Z,68.33
2022-11-24T11:52:38.144Z,69.49
2022-11-24T11:57:28.359Z,68.27
2022-11-24T12:02:38.286Z,69.26
2022-11-24T12:07:38.214Z,69.53
2022-11-24T12:12:29.289Z,69.17
2022-11-24T12:17:31.156Z,69.77
2022-11-24T12:22:38.220Z,69.08
2022-11-24T12:27:29.265Z,69.21
2022-11-24T12:32:38.243Z,69.75
2022-11-24T12:37:29.319Z,68.79
2022-11-24T12:42:35.380Z,69.36
2022-11-24T12:47:27.682Z,69.44
2022-11-24T12:52:24.237Z,68.85
2022-11-24T12:57:29.350Z,69.07
2022-11-24T13:02:26.579Z,68.80
2022-11-24T13:07:34.069Z,68.76
2022-11-24T13:12:18.482Z,69.27
2022-11-24T13:17:35.178Z,69.77
2022-11-24T13:22:27.002Z,69.93
2022-11-24T13:27:26.635Z,69.02
2022-11-24T13:32:18.504Z,69.83
2022-11-24T13:37:34.419Z,69.37
2022-11-24T13:42:43.408Z,69.19
2022-11-24T13:47:30.175Z,69.32
2022-11-24T13:52:38.446Z,69.69
2022-11-24T13:57:32.922Z,70.12
2022-11-24T14:02:23.192Z,69.95
2022-11-24T14:07:18.605Z,69.79
2022-11-24T14:12:19.975Z,70.77
2022-11-24T14:17:23.405Z,71.21
2022-11-24T14:22:23.031Z,71.72
2022-11-24T14:27:24.825Z,72.77
2022-11-24T14:32:18.622Z,73.13
2022-11-24T14:37:19.106Z,73.86
2022-11-24T14:42:20.433Z,74.38
2022-11-24T14:47:31.190Z,74.89
2022-11-24T14:52:21.989Z,75.53
2022-11-24T15:02:32.003Z,77.01
2022-11-24T15:07:19.299Z,77.77
2022-11-24T15:12:31.877Z,78.23
2022-11-24T15:17:17.006Z,78.70
2022-11-24T15:22:25.753Z,78.79
2022-11-24T15:27:11.998Z,79.03
2022-11-24T15:32:13.731Z,79.22
2022-11-24T15:37:12.029Z,79.70
2022-11-24T15:42:12.172Z,79.66
2022-11-24T15:47:12.159Z,79.75
2022-11-24T15:52:12.083Z,79.86
2022-11-24T15:57:12.234Z,80.69
2022-11-24T16:02:12.741Z,80.33
2022-11-24T16:07:12.581Z,80.84
2022-11-24T16:12:12.125Z,80.23
2022-11-24T16:17:12.126Z,80.79
2022-11-24T16:22:12.262Z,80.93
2022-11-24T16:27:12.153Z,81.16
2022-11-24T16:32:12.201Z,80.93
2022-11-24T16:37:12.283Z,81.76
2022-11-24T16:42:12.198Z,82.23
2022-11-24T16:47:12.195Z,82.28
2022-11-24T16:52:13.221Z,82.47
2022-11-24T16:57:15.136Z,82.66
2022-11-24T17:02:12.913Z,82.47
2022-11-24T17:07:12.288Z,83.11
2022-11-24T17:12:12.238Z,82.65
2022-11-24T17:17:12.289Z,83.10
2022-11-24T17:22:12.273Z,82.98
2022-11-24T17:27:12.285Z,82.84
2022-11-24T17:32:12.335Z,83.03
2022-11-24T17:37:12.323Z,82.71
2022-11-24T17:42:12.301Z,82.46
2022-11-24T17:47:12.386Z,82.54
2022-11-24T17:52:12.348Z,82.57
2022-11-24T17:57:12.355Z,82.03
2022-11-24T18:02:13.018Z,82.03
2022-11-24T18:07:12.472Z,82.07
2022-11-24T18:12:12.477Z,82.02
2022-11-24T18:17:12.391Z,81.62
2022-11-24T18:22:12.394Z,81.47
2022-11-24T18:27:12.440Z,81.46
2022-11-24T18:32:12.584Z,81.43
2022-11-24T18:37:12.456Z,81.58
2022-11-24T18:42:12.482Z,81.66
2022-11-24T18:47:13.661Z,81.75
2022-11-24T18:52:12.506Z,81.72
2022-11-24T18:57:12.494Z,81.74
2022-11-24T19:02:13.098Z,81.53
2022-11-24T19:07:12.546Z,81.35
2022-11-24T19:12:12.615Z,81.24
2022-11-24T19:17:12.545Z,81.34
2022-11-24T19:22:12.543Z,81.25
2022-11-24T19:27:12.742Z,81.12
2022-11-24T19:32:12.771Z,81.25
2022-11-24T19:37:12.594Z,81.28
2022-11-24T19:42:12.610Z,81.27
2022-11-24T19:47:12.630Z,80.98
2022-11-24T19:52:12.663Z,81.12
2022-11-24T19:57:12.679Z,81.10
2022-11-24T20:02:13.208Z,81.28
2022-11-24T20:07:12.748Z,81.16
2022-11-24T20:12:12.681Z,81.16
2022-11-24T20:17:12.648Z,81.19
2022-11-24T20:22:12.695Z,81.12
2022-11-24T20:27:12.713Z,81.16
2022-11-24T20:32:12.840Z,81.23
2022-11-24T20:37:12.729Z,81.35
2022-11-24T20:42:12.869Z,80.89
2022-11-24T20:47:12.765Z,81.09
2022-11-24T20:52:12.740Z,80.86
2022-11-24T20:57:12.900Z,80.55
2022-11-24T21:02:14.055Z,80.65
2022-11-24T21:07:12.811Z,80.65
2022-11-24T21:12:12.828Z,80.80
2022-11-24T21:17:12.846Z,81.02
2022-11-24T21:22:12.813Z,81.12
2022-11-24T21:27:12.838Z,81.36
2022-11-24T21:32:12.920Z,81.40
2022-11-24T21:37:12.850Z,81.48
2022-11-24T21:42:12.838Z,81.84
2022-11-24T21:47:12.891Z,82.09
2022-11-24T21:52:12.906Z,82.57
2022-11-24T21:57:12.898Z,82.54
2022-11-24T22:02:13.881Z,82.69
2022-11-24T22:07:13.057Z,82.89
2022-11-24T22:12:12.920Z,83.05
2022-11-24T22:17:12.960Z,83.07
2022-11-24T22:22:12.940Z,83.33
2022-11-24T22:27:12.966Z,82.92
2022-11-24T22:32:13.014Z,83.38
2022-11-24T22:37:12.982Z,83.33
2022-11-24T22:42:13.013Z,83.22
2022-11-24T22:47:13.114Z,82.97
2022-11-24T22:52:13.774Z,82.79
2022-11-24T22:57:13.046Z,82.91
2022-11-24T23:02:13.665Z,82.88
2022-11-24T23:07:13.120Z,82.72
2022-11-24T23:12:13.088Z,82.76
2022-11-24T23:17:13.112Z,82.97
2022-11-24T23:22:13.085Z,83.17
2022-11-24T23:27:13.106Z,83.58
2022-11-24T23:32:13.137Z,84.02
2022-11-24T23:37:13.132Z,85.33
2022-11-24T23:42:13.118Z,86.13
2022-11-24T23:47:13.166Z,85.95
2022-11-24T23:52:13.149Z,85.99
2022-11-24T23:57:13.172Z,86.44
